createdAt,value
2018-07-30T00:00:26.501Z,98929.77
2018-07-30T00:03:28.901Z,98930.02
2018-07-30T00:06:31.285Z,98931.72
2018-07-30T00:09:33.767Z,98938.89
2018-07-30T00:12:36.895Z,98939.59
2018-07-30T00:15:39.240Z,98941.31
2018-07-30T00:18:41.539Z,98942.77
2018-07-30T00:21:44.023Z,98943.41
2018-07-30T00:24:46.354Z,98944.61
2018-07-30T00:27:48.842Z,98942.81
2018-07-30T00:30:51.434Z,98942.98
2018-07-30T00:33:54.016Z,98947.80
2018-07-30T00:36:59.916Z,98946.90
2018-07-30T00:40:02.277Z,98941.41
2018-07-30T00:43:05.818Z,98944.95
2018-07-30T00:46:08.161Z,98951.76
2018-07-30T00:49:11.422Z,98950.41
2018-07-30T00:52:14.814Z,98953.82
2018-07-30T00:55:17.158Z,98956.85
2018-07-30T00:58:19.685Z,98956.81
2018-07-30T01:01:22.088Z,98959.84
2018-07-30T01:04:24.563Z,98951.44
2018-07-30T01:07:26.890Z,98945.68
2018-07-30T01:10:29.282Z,98957.70
2018-07-30T01:13:31.644Z,98949.77
2018-07-30T01:16:34.296Z,98960.52
2018-07-30T01:19:36.773Z,98955.95
2018-07-30T01:22:39.166Z,98958.89
2018-07-30T01:25:42.664Z,98962.80
2018-07-30T01:28:45.041Z,98965.91
2018-07-30T01:31:47.288Z,98975.48
2018-07-30T01:34:49.637Z,98974.91
2018-07-30T01:37:51.930Z,98976.55
2018-07-30T01:41:28.820Z,98975.34
2018-07-30T01:44:31.327Z,98975.77
2018-07-30T01:47:33.664Z,98985.01
2018-07-30T01:50:36.123Z,98985.01
2018-07-30T01:53:38.632Z,98985.66
2018-07-30T01:56:41.072Z,98988.37
2018-07-30T01:59:43.537Z,98985.73
2018-07-30T02:02:45.832Z,98985.91
2018-07-30T02:05:48.363Z,98991.74
2018-07-30T02:08:50.916Z,98985.23
2018-07-30T02:11:53.426Z,98991.27
2018-07-30T02:14:55.982Z,98992.74
2018-07-30T02:18:02.269Z,98980.37
2018-07-30T02:21:04.824Z,98978.72
2018-07-30T02:24:07.342Z,98980.67
2018-07-30T02:27:09.912Z,98977.02
2018-07-30T02:30:12.405Z,98988.07
2018-07-30T02:33:14.948Z,98993.05
2018-07-30T02:36:17.397Z,99000.58
2018-07-30T02:39:19.884Z,98994.20
2018-07-30T02:42:22.275Z,98996.22
2018-07-30T02:45:24.705Z,98996.14
2018-07-30T02:48:27.134Z,98991.38
2018-07-30T02:51:29.705Z,98998.58
2018-07-30T02:54:32.096Z,98997.26
2018-07-30T02:57:37.801Z,99002.42
2018-07-30T03:04:44.871Z,98997.86
2018-07-30T03:13:31.472Z,98998.67
2018-07-30T03:22:51.929Z,98996.75
2018-07-30T10:18:14.240Z,98962.53
2018-07-30T10:21:16.489Z,98913.64
2018-07-30T10:24:18.784Z,98880.53
2018-07-30T10:27:21.000Z,98901.41
2018-07-30T10:33:12.804Z,98927.88
2018-07-30T10:36:15.116Z,99031.69
2018-07-30T10:39:17.401Z,99087.69
2018-07-30T10:42:19.613Z,99114.80
2018-07-30T10:45:22.008Z,99031.58
2018-07-30T10:48:24.326Z,99001.22
2018-07-30T10:51:26.559Z,98968.08
2018-07-30T10:54:29.867Z,98895.03
2018-07-30T10:57:32.134Z,98911.33
2018-07-30T11:00:34.449Z,98924.16
2018-07-30T11:03:36.710Z,98987.05
2018-07-30T11:06:39.004Z,98982.75
2018-07-30T11:09:41.407Z,99020.77
2018-07-30T11:12:43.567Z,98997.86
2018-07-30T11:15:45.953Z,99026.05
2018-07-30T11:18:48.256Z,99005.53
2018-07-30T11:21:50.559Z,98988.23
2018-07-30T11:24:52.827Z,98974.68
2018-07-30T11:27:55.114Z,98995.60
2018-07-30T11:30:57.374Z,98975.58
2018-07-30T11:33:59.622Z,98940.99
2018-07-30T11:37:01.862Z,98914.38
2018-07-30T11:40:04.323Z,98891.49
2018-07-30T11:43:06.580Z,98864.39
2018-07-30T11:46:25.391Z,98932.94
2018-07-30T11:49:27.686Z,98958.83
2018-07-30T11:52:30.007Z,98969.91
2018-07-30T11:55:32.226Z,98950.94
2018-07-30T11:58:34.485Z,98948.47
2018-07-30T12:01:36.798Z,98944.52
2018-07-30T12:04:39.126Z,98924.46
2018-07-30T12:07:41.469Z,98880.11
2018-07-30T12:10:43.863Z,98828.22
2018-07-30T12:13:46.193Z,98860.27
2018-07-30T12:16:48.524Z,98848.72
2018-07-30T12:19:50.877Z,98879.97
2018-07-30T12:22:53.332Z,99011.94
2018-07-30T12:25:58.278Z,99027.68
2018-07-30T12:29:00.670Z,98971.10
2018-07-30T12:32:03.370Z,98924.70
2018-07-30T12:35:05.808Z,98897.36
2018-07-30T12:38:08.165Z,98976.45
2018-07-30T12:41:10.516Z,98960.58
2018-07-30T12:44:12.742Z,98956.11
2018-07-30T12:47:16.080Z,98966.73
2018-07-30T12:50:18.378Z,98893.13
2018-07-30T12:53:20.671Z,98817.16
2018-07-30T12:56:22.933Z,98773.34
2018-07-30T12:59:25.314Z,98787.97
2018-07-30T13:02:28.586Z,98762.19
2018-07-30T13:05:30.894Z,98847.33
2018-07-30T13:08:33.231Z,98919.11
2018-07-30T13:11:35.579Z,98883.30
2018-07-30T13:14:37.923Z,98822.92
2018-07-30T13:17:40.267Z,98809.19
2018-07-30T13:20:45.577Z,98750.02
2018-07-30T13:23:47.898Z,98775.70
2018-07-30T13:26:50.277Z,98738.94
2018-07-30T13:29:52.495Z,98683.00
2018-07-30T13:32:54.835Z,98695.84
2018-07-30T13:35:57.275Z,98751.06
2018-07-30T13:38:59.637Z,98908.06
2018-07-30T13:42:01.988Z,98952.70
2018-07-30T13:45:04.775Z,98875.25
2018-07-30T13:48:07.215Z,98896.83
2018-07-30T13:51:09.672Z,98901.78
2018-07-30T13:54:12.177Z,98949.97
2018-07-30T13:57:16.648Z,98949.99
2018-07-30T14:00:20.874Z,98809.30
2018-07-30T14:03:24.201Z,98773.97
2018-07-30T14:06:31.240Z,98711.41
2018-07-30T14:09:34.217Z,98568.51
2018-07-30T14:12:36.420Z,98581.06
2018-07-30T14:15:38.675Z,98655.44
2018-07-30T14:18:40.961Z,98627.14
2018-07-30T14:21:48.140Z,98661.02
2018-07-30T14:24:50.629Z,98770.76
2018-07-30T14:27:52.894Z,98914.45
2018-07-30T14:30:55.092Z,98881.69
2018-07-30T14:33:57.429Z,98867.23
2018-07-30T14:36:59.734Z,98915.66
2018-07-30T14:40:06.596Z,98968.53
2018-07-30T14:43:08.828Z,99015.53
2018-07-30T14:46:11.195Z,98952.66
2018-07-30T14:49:13.439Z,98897.34
2018-07-30T14:52:15.856Z,98834.31
2018-07-30T14:55:18.090Z,98821.03
2018-07-30T14:58:20.418Z,98881.66
2018-07-30T15:01:22.680Z,98848.66
2018-07-30T15:04:25.001Z,98824.88
2018-07-30T15:07:27.218Z,98811.95
2018-07-30T15:10:29.436Z,98803.45
2018-07-30T15:13:31.654Z,98821.05
2018-07-30T15:16:34.014Z,98999.89
2018-07-30T15:19:36.356Z,98992.95
2018-07-30T15:22:38.595Z,98937.80
2018-07-30T15:25:41.011Z,98912.14
2018-07-30T15:28:43.229Z,98836.66
2018-07-30T15:31:45.482Z,98892.80
2018-07-30T15:34:47.737Z,98956.23
2018-07-30T15:37:49.980Z,98934.34
2018-07-30T15:40:52.295Z,98898.27
2018-07-30T15:43:54.606Z,98911.01
2018-07-30T15:46:56.891Z,98880.34
2018-07-30T15:49:59.194Z,98901.55
2018-07-30T15:53:01.464Z,98818.13
2018-07-30T15:56:03.725Z,98817.01
2018-07-30T15:59:06.031Z,98754.53
2018-07-30T16:02:08.371Z,98831.14
2018-07-30T16:05:14.820Z,98772.95
2018-07-30T16:08:17.159Z,98721.66
2018-07-30T16:11:21.071Z,98685.76
2018-07-30T16:14:23.416Z,98786.02
2018-07-30T16:17:25.846Z,98766.83
2018-07-30T16:20:28.116Z,98741.42
2018-07-30T16:23:30.566Z,98722.87
2018-07-30T16:26:33.045Z,98817.41
2018-07-30T16:29:35.916Z,98976.73
2018-07-30T16:32:38.401Z,98977.13
2018-07-30T16:35:40.926Z,98919.36
2018-07-30T16:38:43.365Z,98895.66
2018-07-30T16:41:45.705Z,98921.84
2018-07-30T16:44:48.166Z,98947.67
2018-07-30T16:47:50.598Z,98933.48
2018-07-30T16:50:52.914Z,98933.45
2018-07-30T16:53:55.347Z,98931.59
2018-07-30T16:56:57.730Z,98920.66
2018-07-30T17:00:00.035Z,98925.48
2018-07-30T17:03:02.455Z,98910.53
2018-07-30T17:06:05.002Z,98906.96
2018-07-30T17:09:09.602Z,98896.81
2018-07-30T17:12:11.926Z,98892.52
2018-07-30T17:15:14.248Z,98869.35
2018-07-30T17:18:17.730Z,98869.29
2018-07-30T17:21:20.031Z,98874.44
2018-07-30T17:24:22.286Z,98877.52
2018-07-30T17:27:24.661Z,98878.14
2018-07-30T17:30:26.937Z,98883.06
2018-07-30T17:33:30.229Z,98879.90
2018-07-30T17:36:32.529Z,98882.31
2018-07-30T17:39:34.807Z,98882.66
2018-07-30T17:42:37.244Z,98876.92
2018-07-30T17:45:39.561Z,98885.27
2018-07-30T17:48:41.737Z,98879.67
2018-07-30T17:51:43.993Z,98868.09
2018-07-30T17:54:46.299Z,98864.13
2018-07-30T17:57:48.581Z,98855.82
2018-07-30T18:00:50.862Z,98847.54
2018-07-30T18:03:53.196Z,98855.88
2018-07-30T18:06:56.553Z,98849.22
2018-07-30T18:09:58.835Z,98881.80
2018-07-30T18:13:01.133Z,98903.52
2018-07-30T18:16:03.564Z,98881.45
2018-07-30T18:19:05.976Z,98876.64
2018-07-30T18:22:08.361Z,98872.63
2018-07-30T18:25:10.774Z,98872.16
2018-07-30T18:28:13.150Z,98893.68
2018-07-30T18:31:15.586Z,98906.83
2018-07-30T18:34:18.102Z,98901.52
2018-07-30T18:37:20.614Z,98909.02
2018-07-30T18:40:22.969Z,98913.48
2018-07-30T18:43:25.290Z,98905.94
2018-07-30T18:46:28.589Z,98912.02
2018-07-30T18:49:31.106Z,98926.75
2018-07-30T18:52:33.507Z,98923.75
2018-07-30T18:55:36.195Z,98922.34
2018-07-30T18:58:38.565Z,98923.16
2018-07-30T19:01:40.894Z,98923.25
2018-07-30T19:04:43.300Z,98925.45
2018-07-30T19:07:45.685Z,98926.45
2018-07-30T19:10:48.111Z,98923.09
2018-07-30T19:13:50.525Z,98935.45
2018-07-30T19:16:53.521Z,98932.19
2018-07-30T19:19:55.804Z,98937.68
2018-07-30T19:22:58.184Z,98936.44
2018-07-30T19:26:00.774Z,98935.13
2018-07-30T19:29:03.246Z,98945.02
2018-07-30T19:32:05.644Z,98945.02
2018-07-30T19:35:08.043Z,98947.91
2018-07-30T19:38:10.342Z,98949.48
2018-07-30T19:41:12.682Z,98958.52
2018-07-30T19:44:15.128Z,98957.61
2018-07-30T19:47:17.506Z,98962.34
2018-07-30T19:50:19.907Z,98960.91
2018-07-30T19:53:22.286Z,98968.34
2018-07-30T19:56:24.654Z,98967.98
2018-07-30T19:59:27.000Z,98969.75
2018-07-30T20:02:29.306Z,98962.91
2018-07-30T20:05:31.602Z,98965.98
2018-07-30T20:08:33.973Z,98970.06
2018-07-30T20:11:36.683Z,98970.92
2018-07-30T20:14:39.904Z,98974.20
2018-07-30T20:17:42.282Z,98969.84
2018-07-30T20:20:44.628Z,98978.47
2018-07-30T20:23:46.964Z,98978.84
2018-07-30T20:26:49.250Z,98976.11
2018-07-30T20:29:51.534Z,98982.06
2018-07-30T20:32:53.762Z,98988.73
2018-07-30T20:36:04.698Z,98985.78
2018-07-30T20:39:07.892Z,98988.98
2018-07-30T20:42:10.261Z,98986.25
2018-07-30T20:45:12.590Z,98990.67
2018-07-30T20:48:14.940Z,98994.23
2018-07-30T20:51:17.272Z,98993.20
2018-07-30T20:54:19.506Z,98997.55
2018-07-30T20:57:21.895Z,98996.09
2018-07-30T21:00:24.211Z,98999.70
2018-07-30T21:03:26.957Z,99002.31
2018-07-30T21:06:29.268Z,99001.59
2018-07-30T21:09:32.480Z,98996.68
2018-07-30T21:12:34.738Z,99006.14
2018-07-30T21:15:37.004Z,99013.80
2018-07-30T21:18:40.283Z,99014.71
2018-07-30T21:21:42.536Z,99013.16
2018-07-30T21:24:44.776Z,99013.05
2018-07-30T21:27:47.054Z,99010.34
2018-07-30T21:30:49.392Z,99012.44
2018-07-30T21:33:51.722Z,99005.92
2018-07-30T21:36:53.972Z,99008.11
2018-07-30T21:39:56.189Z,99003.92
2018-07-30T21:42:58.427Z,99009.53
2018-07-30T21:46:00.675Z,99005.25
2018-07-30T21:49:02.927Z,99002.78
2018-07-30T21:52:05.246Z,99006.16
2018-07-30T21:55:07.564Z,98999.85
2018-07-30T21:58:09.858Z,99008.12
2018-07-30T22:01:12.174Z,99010.25
2018-07-30T22:04:14.573Z,99008.67
2018-07-30T22:07:16.898Z,99003.88
2018-07-30T22:10:21.767Z,99006.79
2018-07-30T22:13:24.171Z,99009.52
2018-07-30T22:16:26.634Z,99019.46
2018-07-30T22:19:29.076Z,99020.65
2018-07-30T22:22:31.669Z,99014.36
2018-07-30T22:25:33.951Z,99016.73
2018-07-30T22:28:36.345Z,99021.46
2018-07-30T22:31:38.745Z,99023.83
2018-07-30T22:34:41.111Z,99018.86
2018-07-30T22:37:43.464Z,99021.06
2018-07-30T22:40:45.837Z,99025.27
2018-07-30T22:43:48.185Z,99026.83
2018-07-30T22:46:50.482Z,99021.11
2018-07-30T22:49:52.869Z,99019.16
2018-07-30T22:52:55.229Z,99021.23
2018-07-30T22:55:57.554Z,99021.81
2018-07-30T22:58:59.860Z,99019.78
2018-07-30T23:02:02.298Z,99026.02
2018-07-30T23:05:05.017Z,99018.08
2018-07-30T23:08:07.356Z,99019.63
2018-07-30T23:11:09.683Z,99025.03
2018-07-30T23:14:11.978Z,99025.41
2018-07-30T23:17:14.362Z,99019.59
2018-07-30T23:20:16.634Z,99025.55
2018-07-30T23:23:19.057Z,99020.76
2018-07-30T23:26:21.404Z,99024.38
2018-07-30T23:29:23.702Z,99017.81
2018-07-30T23:32:26.316Z,99016.17
2018-07-30T23:35:28.765Z,99015.20
2018-07-30T23:38:31.088Z,99013.66
2018-07-30T23:41:33.434Z,99012.33
2018-07-30T23:44:35.686Z,99015.57
2018-07-30T23:47:38.066Z,99009.61
2018-07-30T23:50:40.332Z,99013.23
2018-07-30T23:53:42.688Z,99008.61
2018-07-30T23:56:44.965Z,99001.25
2018-07-30T23:59:47.317Z,99006.64
